Time;durP1;ratioP1;P1;durP2;ratioP2;P2;SDS_P1;SDS_P2;PMS_P1;PMS_P2;Temp;Humidity;BMP_temperature;BMP_pressure;BME280_temperature;BME280_humidity;BME280_pressure;Samples;Min_cycle;Max_cycle;Signal;HPM_P1;HPM_P2
2021/08/13 00:00:55;;;;;;;17.45;14.38;;;;;;;17.24;97.58;101472.50;4977409;28;20323;-80
2021/08/13 00:03:21;;;;;;;17.15;14.68;;;;;;;17.21;98.38;101469.34;4982886;28;20049;-81
2021/08/13 00:05:49;;;;;;;17.38;14.02;;;;;;;17.18;98.17;101462.41;4984220;28;20492;-80
2021/08/13 00:08:15;;;;;;;18.80;14.77;;;;;;;17.13;97.42;101471.13;4984157;28;20034;-80
2021/08/13 00:10:40;;;;;;;18.48;13.90;;;;;;;17.11;97.73;101466.91;4982296;28;20100;-80
2021/08/13 00:13:06;;;;;;;16.60;13.45;;;;;;;17.10;97.83;101463.38;4975280;28;20125;-82
2021/08/13 00:15:31;;;;;;;15.55;13.45;;;;;;;17.06;97.70;101464.78;4959980;28;20042;-81
2021/08/13 00:17:57;;;;;;;16.23;13.73;;;;;;;17.05;97.64;101462.25;4982003;28;20053;-81
2021/08/13 00:20:23;;;;;;;16.33;13.10;;;;;;;17.01;98.00;101463.69;4963571;28;20130;-80
2021/08/13 00:22:50;;;;;;;16.70;13.70;;;;;;;16.99;97.96;101465.72;4983848;28;20039;-81
2021/08/13 00:25:16;;;;;;;17.75;14.68;;;;;;;16.96;98.55;101463.41;4988621;28;20038;-82
2021/08/13 00:27:41;;;;;;;18.05;15.10;;;;;;;16.89;98.25;101463.34;4986610;28;20121;-81
2021/08/13 00:30:07;;;;;;;17.58;14.52;;;;;;;16.89;98.89;101469.59;4987372;28;20045;-81
2021/08/13 00:32:33;;;;;;;18.60;15.00;;;;;;;16.86;98.37;101471.81;4984955;28;20066;-81
2021/08/13 00:34:58;;;;;;;18.20;15.05;;;;;;;16.83;98.51;101464.06;4987119;28;20431;-81
2021/08/13 00:37:24;;;;;;;19.70;15.48;;;;;;;16.76;99.01;101463.13;4987895;28;20107;-81
2021/08/13 00:39:49;;;;;;;18.77;15.35;;;;;;;16.80;99.01;101469.88;4987092;28;20030;-82
2021/08/13 00:42:14;;;;;;;17.83;14.80;;;;;;;16.76;98.60;101463.13;4985783;28;20289;-81
2021/08/13 00:44:40;;;;;;;19.88;15.80;;;;;;;16.71;99.31;101469.09;4985614;28;20126;-80
2021/08/13 00:47:05;;;;;;;18.00;14.82;;;;;;;16.67;99.43;101473.22;4987019;28;20041;-81
2021/08/13 00:49:30;;;;;;;16.90;14.48;;;;;;;16.66;99.55;101471.53;4987556;28;20047;-80
2021/08/13 00:51:56;;;;;;;19.17;15.93;;;;;;;16.65;99.22;101470.69;4970786;28;20069;-80
2021/08/13 00:54:21;;;;;;;19.67;14.93;;;;;;;16.58;98.94;101466.22;4987609;28;20038;-81
2021/08/13 00:56:47;;;;;;;18.13;15.02;;;;;;;16.57;99.64;101464.53;4985038;28;20210;-81
2021/08/13 00:59:13;;;;;;;19.15;15.43;;;;;;;16.52;99.98;101461.56;4986678;28;20487;-81
2021/08/13 01:01:38;;;;;;;17.63;14.40;;;;;;;16.50;99.75;101464.44;4982747;28;20049;-81
2021/08/13 01:04:04;;;;;;;19.40;15.82;;;;;;;16.47;100.00;101471.06;4986623;28;20126;-81
2021/08/13 01:06:30;;;;;;;19.33;15.13;;;;;;;16.45;100.00;101483.94;4987119;28;20041;-81
2021/08/13 01:08:56;;;;;;;18.48;14.98;;;;;;;16.44;100.00;101481.44;4985976;28;20059;-81
2021/08/13 01:11:45;;;;;;;22.00;15.70;;;;;;;16.41;100.00;101481.81;4987372;28;20163;-81
2021/08/13 01:14:41;;;;;;;21.42;17.15;;;;;;;16.38;100.00;101484.91;4974949;28;20085;-81
2021/08/13 01:17:09;;;;;;;22.30;16.40;;;;;;;16.39;100.00;101486.56;4998558;28;20043;-81
2021/08/13 01:19:34;;;;;;;18.60;16.55;;;;;;;16.39;100.00;101484.69;4987033;28;22786;-80
2021/08/13 01:22:10;;;;;;;18.95;16.35;;;;;;;16.40;99.92;101483.69;4986556;28;20138;-81
2021/08/13 01:24:41;;;;;;;22.17;17.05;;;;;;;16.40;100.00;101485.53;4986559;28;20045;-82
2021/08/13 01:27:12;;;;;;;21.13;17.20;;;;;;;16.36;100.00;101490.47;4985125;28;20045;-81
2021/08/13 01:29:50;;;;;;;21.08;16.38;;;;;;;16.38;100.00;101487.59;4982165;28;20046;-81
2021/08/13 01:32:34;;;;;;;21.23;16.30;;;;;;;16.38;100.00;101482.19;4986594;28;20503;-81
2021/08/13 01:35:12;;;;;;;18.13;16.23;;;;;;;16.40;100.00;101488.25;5000280;28;20054;-81
2021/08/13 01:37:46;;;;;;;20.05;16.35;;;;;;;16.41;100.00;101482.66;4984283;28;20132;-81
2021/08/13 01:40:15;;;;;;;22.15;17.17;;;;;;;16.41;100.00;101490.78;4987526;28;20046;-81
2021/08/13 01:42:43;;;;;;;20.13;16.10;;;;;;;16.39;100.00;101481.97;4984787;28;20062;-81
2021/08/13 01:45:10;;;;;;;20.67;15.77;;;;;;;16.39;100.00;101483.84;4986545;28;20047;-81
2021/08/13 01:47:36;;;;;;;19.70;16.17;;;;;;;16.40;100.00;101488.25;4985961;28;20039;-81
2021/08/13 01:50:03;;;;;;;20.98;16.70;;;;;;;16.39;100.00;101495.53;4985782;28;20035;-81
2021/08/13 01:52:29;;;;;;;23.15;16.58;;;;;;;16.38;100.00;101501.16;4986103;28;20042;-81
2021/08/13 01:54:56;;;;;;;21.38;16.95;;;;;;;16.41;100.00;101498.06;4986872;28;20589;-80
2021/08/13 01:57:22;;;;;;;19.40;15.25;;;;;;;16.38;100.00;101493.84;4986198;28;20399;-80
2021/08/13 01:59:49;;;;;;;21.15;17.20;;;;;;;16.37;100.00;101500.31;4984017;28;20041;-80
2021/08/13 02:02:14;;;;;;;19.83;15.73;;;;;;;16.39;100.00;101498.25;4985360;28;20148;-81
2021/08/13 02:04:43;;;;;;;23.42;16.42;;;;;;;16.38;100.00;101496.56;4986071;28;20379;-81
2021/08/13 02:07:13;;;;;;;19.63;15.85;;;;;;;16.39;100.00;101495.53;4985594;28;20140;-80
2021/08/13 02:09:39;;;;;;;19.80;15.25;;;;;;;16.36;100.00;101493.19;4984513;28;20086;-82
2021/08/13 02:12:04;;;;;;;18.45;15.02;;;;;;;16.34;100.00;101492.56;4985257;28;20066;-80
2021/08/13 02:14:30;;;;;;;18.17;15.55;;;;;;;16.34;100.00;101503.41;4985857;28;20046;-81
2021/08/13 02:16:57;;;;;;;20.08;16.13;;;;;;;16.36;99.41;101504.03;4968921;28;20065;-80
2021/08/13 02:19:28;;;;;;;21.83;16.45;;;;;;;16.36;100.00;101512.16;4984860;28;20496;-80
2021/08/13 02:21:54;;;;;;;19.33;15.88;;;;;;;16.37;100.00;101503.03;4985320;28;20061;-81
2021/08/13 02:24:19;;;;;;;21.02;15.57;;;;;;;16.33;100.00;101507.09;4984308;28;20476;-82
2021/08/13 02:26:46;;;;;;;19.00;15.48;;;;;;;16.32;100.00;101497.31;4985238;28;20073;-82
2021/08/13 02:29:12;;;;;;;17.77;15.18;;;;;;;16.30;100.00;101496.66;4984727;28;20665;-81
2021/08/13 02:31:37;;;;;;;18.90;15.50;;;;;;;16.28;100.00;101492.44;4974174;28;20042;-81
2021/08/13 02:34:02;;;;;;;21.63;15.85;;;;;;;16.27;100.00;101490.75;4983235;28;20077;-80
2021/08/13 02:36:36;;;;;;;20.65;17.17;;;;;;;16.23;100.00;101480.31;4984396;28;20396;-80
2021/08/13 02:39:11;;;;;;;22.60;17.45;;;;;;;16.23;100.00;101479.47;4984853;28;20136;-81
2021/08/13 02:41:39;;;;;;;21.42;17.83;;;;;;;16.19;100.00;101478.13;4984173;28;20053;-81
2021/08/13 02:44:07;;;;;;;19.67;16.67;;;;;;;16.15;100.00;101472.25;4982240;28;20042;-81
2021/08/13 02:46:45;;;;;;;18.83;16.17;;;;;;;16.09;100.00;101475.72;4974976;28;20038;-81
2021/08/13 02:49:13;;;;;;;21.98;16.83;;;;;;;16.07;100.00;101474.19;4977954;28;20130;-81
2021/08/13 02:51:40;;;;;;;21.30;16.30;;;;;;;16.02;100.00;101467.50;4974957;28;20077;-81
2021/08/13 02:54:07;;;;;;;20.80;17.27;;;;;;;16.00;100.00;101474.94;4979566;28;20050;-81
2021/08/13 02:56:34;;;;;;;21.08;18.20;;;;;;;16.01;100.00;101475.78;4975809;28;20034;-81
2021/08/13 02:59:06;;;;;;;22.60;17.38;;;;;;;15.99;100.00;101469.69;4976372;28;20054;-81
2021/08/13 03:01:34;;;;;;;23.40;18.10;;;;;;;15.91;100.00;101464.34;4989980;28;20081;-81
2021/08/13 03:04:02;;;;;;;23.42;18.65;;;;;;;15.87;100.00;101463.88;4977069;28;20127;-81
2021/08/13 03:06:31;;;;;;;23.83;17.60;;;;;;;15.87;100.00;101463.88;4975540;28;20506;-81
2021/08/13 03:08:59;;;;;;;24.08;17.38;;;;;;;15.83;100.00;101457.16;4977742;28;20461;-80
2021/08/13 03:11:26;;;;;;;23.05;18.27;;;;;;;15.84;100.00;101456.13;4975934;28;20439;-81
2021/08/13 03:13:52;;;;;;;23.05;18.75;;;;;;;15.81;100.00;101455.66;4972967;28;20069;-81
2021/08/13 03:16:18;;;;;;;25.30;19.13;;;;;;;15.79;100.00;101458.53;4978103;28;20262;-82
2021/08/13 03:18:45;;;;;;;22.67;18.23;;;;;;;15.80;100.00;101462.94;4975594;28;20080;-81
2021/08/13 03:21:11;;;;;;;21.70;18.30;;;;;;;15.79;100.00;101467.53;4976659;28;20046;-81
2021/08/13 03:23:38;;;;;;;22.67;18.13;;;;;;;15.77;100.00;101466.84;4973895;28;20049;-82
2021/08/13 03:26:06;;;;;;;24.85;18.35;;;;;;;15.72;100.00;101461.16;4953005;28;20146;-81
2021/08/13 03:28:31;;;;;;;23.70;18.55;;;;;;;15.71;100.00;101459.47;4956724;28;20051;-82
2021/08/13 03:30:56;;;;;;;23.35;18.83;;;;;;;15.68;100.00;101461.69;4958478;28;20054;-81
2021/08/13 03:33:22;;;;;;;24.48;18.80;;;;;;;15.62;100.00;101460.50;4957197;28;20519;-81
2021/08/13 03:35:48;;;;;;;27.45;19.45;;;;;;;15.65;100.00;101462.00;4955845;28;20488;-81
2021/08/13 03:38:14;;;;;;;24.98;20.05;;;;;;;15.66;100.00;101461.84;4950058;28;20379;-81
2021/08/13 03:40:39;;;;;;;26.50;19.80;;;;;;;15.62;100.00;101457.78;4949864;28;20050;-81
2021/08/13 03:43:05;;;;;;;27.30;19.55;;;;;;;15.56;100.00;101455.81;4955647;28;20377;-81
2021/08/13 03:45:30;;;;;;;22.88;18.55;;;;;;;15.53;100.00;101457.03;4952469;28;20039;-81
2021/08/13 03:47:55;;;;;;;26.95;19.80;;;;;;;15.48;100.00;101447.78;4958403;28;20058;-81
2021/08/13 03:50:21;;;;;;;26.52;20.70;;;;;;;15.47;100.00;101455.03;4956657;28;20397;-80
2021/08/13 03:52:46;;;;;;;24.67;20.42;;;;;;;15.48;100.00;101454.03;4957429;28;20125;-81
2021/08/13 03:55:13;;;;;;;26.70;20.38;;;;;;;15.49;100.00;101455.72;4958530;28;20113;-81
2021/08/13 03:57:42;;;;;;;23.63;18.83;;;;;;;15.47;100.00;101451.50;4956204;28;20047;-81
2021/08/13 04:00:12;;;;;;;25.48;19.65;;;;;;;15.46;100.00;101449.84;4961183;28;20117;-82
2021/08/13 04:02:37;;;;;;;27.27;20.88;;;;;;;15.41;100.00;101442.25;4961232;28;20448;-82
2021/08/13 04:05:04;;;;;;;27.77;21.20;;;;;;;15.38;100.00;101445.31;4960817;28;20638;-81
2021/08/13 04:07:30;;;;;;;28.27;20.55;;;;;;;15.35;100.00;101441.09;4961513;28;20117;-82
2021/08/13 04:09:55;;;;;;;30.75;21.90;;;;;;;15.37;100.00;101446.34;4962376;28;20065;-82
2021/08/13 04:12:21;;;;;;;29.30;21.67;;;;;;;15.36;100.00;101450.03;4958607;28;20054;-80
2021/08/13 04:14:46;;;;;;;29.90;23.27;;;;;;;15.32;100.00;101454.16;4960786;28;20153;-82
2021/08/13 04:17:12;;;;;;;30.42;22.52;;;;;;;15.33;100.00;101450.41;4958432;28;20050;-81
2021/08/13 04:19:37;;;;;;;29.45;22.77;;;;;;;15.32;100.00;101443.34;4958827;28;20051;-81
2021/08/13 04:22:04;;;;;;;30.65;23.73;;;;;;;15.32;100.00;101454.16;4940019;28;20458;-81
2021/08/13 04:24:33;;;;;;;29.40;21.95;;;;;;;15.30;100.00;101443.50;4976311;28;20050;-81
2021/08/13 04:26:58;;;;;;;30.20;23.35;;;;;;;15.30;100.00;101445.38;4981805;28;20653;-81
2021/08/13 04:29:24;;;;;;;30.13;24.13;;;;;;;15.31;100.00;101444.38;4979815;28;20046;-81
2021/08/13 04:31:49;;;;;;;30.52;23.25;;;;;;;15.32;100.00;101448.75;4976865;28;20045;-81
2021/08/13 04:34:15;;;;;;;29.08;22.23;;;;;;;15.29;100.00;101451.81;4980523;28;20038;-81
2021/08/13 04:36:40;;;;;;;31.38;23.98;;;;;;;15.33;100.00;101450.41;4981335;28;20066;-81
2021/08/13 04:39:06;;;;;;;28.90;22.23;;;;;;;15.35;100.00;101448.38;4980608;28;20054;-81
2021/08/13 04:41:31;;;;;;;31.63;24.17;;;;;;;15.37;100.00;101445.50;4978891;28;20118;-81
2021/08/13 04:43:56;;;;;;;31.80;23.63;;;;;;;15.35;100.00;101448.38;4978948;28;20058;-80
2021/08/13 04:46:22;;;;;;;32.05;24.35;;;;;;;15.34;100.00;101447.53;4963877;28;20133;-80
2021/08/13 04:48:47;;;;;;;32.95;22.08;;;;;;;15.35;100.00;101442.97;4984307;28;20133;-82
2021/08/13 04:51:13;;;;;;;30.15;23.02;;;;;;;15.36;100.00;101452.75;4972920;28;20054;-81
2021/08/13 04:53:38;;;;;;;27.00;21.63;;;;;;;15.35;100.00;101440.25;4980060;28;20063;-81
2021/08/13 04:56:04;;;;;;;27.27;21.52;;;;;;;15.35;100.00;101434.84;4986134;28;20056;-81
2021/08/13 04:58:29;;;;;;;32.60;24.23;;;;;;;15.40;100.00;101434.31;4973680;28;20684;-81
2021/08/13 05:00:56;;;;;;;31.00;22.58;;;;;;;15.41;100.00;101436.84;4975654;28;20043;-81
2021/08/13 05:03:21;;;;;;;31.55;23.17;;;;;;;15.46;100.00;101445.25;4981121;28;20046;-81
2021/08/13 05:05:47;;;;;;;33.30;23.85;;;;;;;15.48;100.00;101437.81;4981113;28;20049;-81
2021/08/13 05:08:14;;;;;;;33.65;23.80;;;;;;;15.55;100.00;101446.88;4976313;28;20566;-82
2021/08/13 05:10:39;;;;;;;32.15;24.77;;;;;;;15.60;100.00;101445.50;4962886;28;20074;-83
2021/08/13 05:13:06;;;;;;;32.08;24.67;;;;;;;15.64;100.00;101446.81;4979176;28;20078;-82
2021/08/13 05:15:32;;;;;;;33.00;26.60;;;;;;;15.70;100.00;101444.25;4981382;28;20074;-81
2021/08/13 05:17:57;;;;;;;37.75;28.10;;;;;;;15.77;100.00;101452.50;4978713;28;20046;-82
2021/08/13 05:20:24;;;;;;;37.95;26.38;;;;;;;15.84;100.00;101453.44;4977915;28;20050;-81
2021/08/13 05:22:50;;;;;;;35.50;27.02;;;;;;;15.89;100.00;101447.47;4978255;28;20041;-81
2021/08/13 05:25:15;;;;;;;31.83;25.58;;;;;;;15.96;100.00;101449.25;4971532;28;20409;-81
2021/08/13 05:27:41;;;;;;;38.00;28.58;;;;;;;16.05;100.00;101460.00;4978655;28;20305;-81
2021/08/13 05:30:08;;;;;;;38.25;28.48;;;;;;;16.12;100.00;101458.25;4977789;28;20038;-81
2021/08/13 05:32:38;;;;;;;34.97;29.27;;;;;;;16.23;100.00;101463.22;4969464;28;20038;-81
2021/08/13 05:35:03;;;;;;;37.28;29.23;;;;;;;16.35;100.00;101471.72;4959509;28;20484;-80
2021/08/13 05:37:29;;;;;;;35.83;29.08;;;;;;;16.47;100.00;101470.22;4959275;28;20154;-81
2021/08/13 05:39:54;;;;;;;31.98;25.33;;;;;;;16.60;100.00;101469.56;4960335;28;20046;-80
2021/08/13 05:42:20;;;;;;;36.08;27.42;;;;;;;16.72;100.00;101468.09;4956641;28;20055;-83
2021/08/13 05:44:45;;;;;;;37.78;26.42;;;;;;;16.85;99.08;101478.28;4959316;28;20049;-80
2021/08/13 05:47:10;;;;;;;31.50;25.65;;;;;;;16.91;98.94;101488.34;4966077;28;20051;-81
2021/08/13 05:49:36;;;;;;;34.00;25.95;;;;;;;17.01;99.87;101482.66;4959338;28;20053;-81
2021/08/13 05:52:02;;;;;;;32.25;24.98;;;;;;;17.11;99.71;101480.47;4955705;28;20042;-82
2021/08/13 05:54:30;;;;;;;34.75;26.42;;;;;;;17.12;98.50;101484.88;4995170;28;20569;-80
2021/08/13 05:56:56;;;;;;;31.45;24.63;;;;;;;17.21;98.29;101482.91;4980172;28;20447;-80
2021/08/13 05:59:21;;;;;;;33.83;25.48;;;;;;;17.32;98.13;101480.53;4976296;28;20058;-80
2021/08/13 06:01:46;;;;;;;31.17;25.08;;;;;;;17.40;97.80;101487.69;4975663;28;20054;-81
2021/08/13 06:04:12;;;;;;;31.83;23.45;;;;;;;17.46;97.84;101481.47;4979426;28;20054;-82
2021/08/13 06:06:40;;;;;;;34.25;26.17;;;;;;;17.62;97.85;101488.53;4976961;28;20042;-80
2021/08/13 06:09:06;;;;;;;34.70;24.58;;;;;;;17.72;96.17;101490.91;4982650;28;20153;-82
2021/08/13 06:11:31;;;;;;;31.48;24.23;;;;;;;17.83;96.70;101486.88;4977796;28;20117;-79
2021/08/13 06:13:57;;;;;;;32.10;24.83;;;;;;;17.98;96.14;101484.91;4977240;28;20639;-81
2021/08/13 06:16:22;;;;;;;33.25;25.88;;;;;;;18.10;95.26;101486.06;4978787;28;20068;-80
2021/08/13 06:18:47;;;;;;;37.53;27.00;;;;;;;18.27;94.13;101484.75;4977472;28;20053;-81
2021/08/13 06:21:13;;;;;;;37.75;27.33;;;;;;;18.40;92.46;101494.84;4991043;28;20065;-81
2021/08/13 06:23:38;;;;;;;37.05;26.90;;;;;;;18.58;92.51;101491.59;4989180;28;20076;-80
2021/08/13 06:26:03;;;;;;;36.00;26.67;;;;;;;18.69;90.28;101492.94;4978325;28;20050;-82
2021/08/13 06:28:29;;;;;;;37.17;26.77;;;;;;;18.82;90.09;101490.31;4981387;28;20587;-81
2021/08/13 06:30:54;;;;;;;34.30;25.23;;;;;;;18.85;88.29;101481.75;4978674;28;20057;-81
2021/08/13 06:33:20;;;;;;;37.35;27.50;;;;;;;18.91;88.43;101488.28;4977716;28;20066;-80
2021/08/13 06:35:45;;;;;;;41.95;27.80;;;;;;;18.98;88.73;101486.41;4973632;28;20517;-82
2021/08/13 06:38:10;;;;;;;36.45;27.58;;;;;;;19.09;90.11;101493.97;4971950;28;20152;-81
2021/08/13 06:40:36;;;;;;;42.40;30.25;;;;;;;19.16;88.93;101483.97;4977922;28;20491;-81
2021/08/13 06:43:01;;;;;;;40.28;27.92;;;;;;;19.21;89.99;101485.22;4970286;28;20116;-82
2021/08/13 06:45:28;;;;;;;42.75;29.15;;;;;;;19.28;90.88;101486.94;4990388;28;20115;-80
2021/08/13 06:47:53;;;;;;;41.92;31.02;;;;;;;19.31;90.51;101477.53;4978466;28;20073;-81
2021/08/13 06:50:19;;;;;;;42.92;30.35;;;;;;;19.36;90.68;101477.72;4977465;28;20248;-81
2021/08/13 06:52:44;;;;;;;42.28;31.00;;;;;;;19.43;90.33;101481.31;4976605;28;20050;-81
2021/08/13 06:55:11;;;;;;;44.40;30.05;;;;;;;19.49;90.68;101483.22;4972220;28;20042;-81
2021/08/13 06:57:37;;;;;;;48.53;33.50;;;;;;;19.56;90.89;101485.94;4975334;28;20038;-81
2021/08/13 07:00:04;;;;;;;41.90;32.70;;;;;;;19.60;89.62;101484.50;4969846;28;20057;-80
2021/08/13 07:02:30;;;;;;;44.22;32.95;;;;;;;19.61;90.76;101489.72;4990626;28;20144;-80
2021/08/13 07:04:55;;;;;;;46.63;33.10;;;;;;;19.62;90.03;101493.28;4981657;28;20047;-82
2021/08/13 07:07:20;;;;;;;49.20;35.85;;;;;;;19.61;91.52;101502.50;4976376;28;20050;-80
2021/08/13 07:09:47;;;;;;;48.33;35.25;;;;;;;19.63;91.47;101489.53;4975851;28;20440;-81
2021/08/13 07:12:14;;;;;;;50.35;36.97;;;;;;;19.64;92.01;101501.25;4977549;28;20057;-80
2021/08/13 07:14:39;;;;;;;54.65;36.17;;;;;;;19.64;93.07;101507.53;4975427;28;20057;-81
2021/08/13 07:17:04;;;;;;;52.63;36.75;;;;;;;19.68;93.05;101510.69;4974444;28;20046;-80
2021/08/13 07:19:30;;;;;;;51.50;38.08;;;;;;;19.67;93.79;101511.75;4976605;28;20054;-81
2021/08/13 07:21:55;;;;;;;54.20;38.08;;;;;;;19.67;94.20;101518.03;4976723;28;20154;-80
2021/08/13 07:24:21;;;;;;;55.78;40.38;;;;;;;19.67;95.22;101517.19;4977798;28;20132;-81
2021/08/13 07:26:47;;;;;;;54.65;41.70;;;;;;;19.66;95.35;101516.38;4958718;28;20144;-82
2021/08/13 07:29:13;;;;;;;57.08;39.53;;;;;;;19.68;95.60;101514.28;4978537;28;20557;-81
2021/08/13 07:31:38;;;;;;;54.60;37.42;;;;;;;19.62;96.35;101517.78;4975822;28;20096;-80
2021/08/13 07:34:03;;;;;;;52.45;40.03;;;;;;;19.66;95.15;101520.97;4959729;28;20085;-80
2021/08/13 07:36:29;;;;;;;51.83;39.60;;;;;;;19.69;95.26;101520.56;4977102;28;20121;-80
2021/08/13 07:38:54;;;;;;;53.42;39.05;;;;;;;19.69;95.36;101521.41;4967728;28;20053;-80
2021/08/13 07:41:20;;;;;;;47.42;34.90;;;;;;;19.70;94.97;101516.78;4960376;28;20154;-81
2021/08/13 07:43:45;;;;;;;47.97;34.25;;;;;;;19.77;94.33;101521.22;4968190;28;20039;-81
2021/08/13 07:46:10;;;;;;;46.33;34.15;;;;;;;19.79;93.41;101535.47;4976504;28;20069;-79
2021/08/13 07:48:36;;;;;;;46.67;33.92;;;;;;;19.88;94.36;101547.00;4974521;28;20101;-81
2021/08/13 07:51:02;;;;;;;43.88;33.20;;;;;;;19.88;93.43;101535.25;4974043;28;20096;-81
2021/08/13 07:53:27;;;;;;;43.10;31.27;;;;;;;19.89;92.60;101545.94;4974001;28;20129;-79
2021/08/13 07:55:53;;;;;;;42.78;30.10;;;;;;;19.89;92.50;101548.66;4976487;28;20277;-81
2021/08/13 07:58:18;;;;;;;37.42;28.50;;;;;;;19.96;90.76;101552.22;4977817;28;20404;-81
2021/08/13 08:00:43;;;;;;;39.78;27.40;;;;;;;20.00;90.22;101550.78;4976602;28;20145;-81
2021/08/13 08:03:09;;;;;;;40.38;28.27;;;;;;;20.05;90.03;101552.84;4970140;28;20046;-81
2021/08/13 08:05:34;;;;;;;34.63;26.98;;;;;;;20.15;90.14;101549.72;4968172;28;20116;-81
2021/08/13 08:08:00;;;;;;;36.85;27.75;;;;;;;20.14;88.90;101567.09;4977520;28;20043;-81
2021/08/13 08:10:25;;;;;;;34.15;24.88;;;;;;;20.16;89.04;101570.47;4975758;28;20165;-80
2021/08/13 08:12:51;;;;;;;34.45;25.23;;;;;;;20.22;88.10;101570.47;4968713;28;20093;-80
2021/08/13 08:15:16;;;;;;;31.42;24.33;;;;;;;20.20;88.63;101560.84;4958920;28;20050;-81
2021/08/13 08:17:42;;;;;;;35.92;24.75;;;;;;;20.27;87.33;101565.22;4970231;28;20125;-80
2021/08/13 08:20:07;;;;;;;35.05;24.25;;;;;;;20.34;86.68;101551.63;4976841;28;20118;-82
2021/08/13 08:22:33;;;;;;;33.78;23.23;;;;;;;20.35;86.42;101553.28;4982005;28;20379;-81
2021/08/13 08:24:58;;;;;;;33.10;23.90;;;;;;;20.40;85.88;101549.91;4983684;28;20046;-81
2021/08/13 08:27:24;;;;;;;32.30;22.35;;;;;;;20.41;86.37;101557.06;4985062;28;20602;-81
2021/08/13 08:29:49;;;;;;;33.15;22.83;;;;;;;20.62;86.13;101564.19;4964995;28;20539;-80
2021/08/13 08:32:15;;;;;;;33.95;21.88;;;;;;;20.80;84.98;101580.75;4983120;28;20721;-80
2021/08/13 08:34:40;;;;;;;30.40;21.80;;;;;;;20.85;84.09;101589.09;4983929;28;20038;-80
2021/08/13 08:37:09;;;;;;;30.52;21.23;;;;;;;20.89;83.90;101597.72;4983476;28;20046;-81
2021/08/13 08:39:35;;;;;;;33.30;23.48;;;;;;;20.82;83.20;101595.00;4983437;28;20046;-80
2021/08/13 08:42:00;;;;;;;32.75;21.92;;;;;;;20.78;83.91;101596.47;4982659;28;20061;-80
2021/08/13 08:44:26;;;;;;;30.95;21.92;;;;;;;20.82;83.94;101586.81;4984681;28;20245;-82
2021/08/13 08:46:52;;;;;;;31.92;22.20;;;;;;;20.91;83.87;101582.78;4987479;28;20492;-82
2021/08/13 08:49:18;;;;;;;29.77;22.35;;;;;;;21.00;83.53;101577.13;4988683;28;20073;-82
2021/08/13 08:51:45;;;;;;;33.20;21.77;;;;;;;21.07;82.35;101588.84;4988913;28;20046;-82
2021/08/13 08:54:11;;;;;;;28.10;18.85;;;;;;;21.12;81.91;101587.16;4986229;28;20042;-82
2021/08/13 08:56:37;;;;;;;26.45;17.58;;;;;;;21.19;81.01;101589.88;4986673;28;20268;-81
2021/08/13 08:59:02;;;;;;;21.23;14.15;;;;;;;21.20;78.07;101602.44;4988123;28;20097;-81
2021/08/13 09:01:28;;;;;;;19.25;12.32;;;;;;;21.27;77.05;101603.28;4976614;28;20053;-81
2021/08/13 09:03:54;;;;;;;15.63;10.85;;;;;;;21.35;76.08;101597.59;4986996;28;20102;-81
2021/08/13 09:06:19;;;;;;;16.52;10.20;;;;;;;21.51;75.88;101593.53;4987219;28;20046;-83
2021/08/13 09:08:45;;;;;;;15.05;10.82;;;;;;;21.48;75.61;101602.16;4987538;28;20514;-82
2021/08/13 09:11:12;;;;;;;17.23;12.48;;;;;;;21.51;75.28;101601.72;4987100;28;20035;-82
2021/08/13 09:13:38;;;;;;;19.60;12.05;;;;;;;21.58;75.15;101593.53;4986911;28;20038;-80
2021/08/13 09:16:10;;;;;;;16.27;11.85;;;;;;;21.60;75.49;101591.38;4970600;28;20030;-82
2021/08/13 09:18:35;;;;;;;17.17;12.15;;;;;;;21.72;75.02;101591.53;4985658;28;20133;-82
2021/08/13 09:21:01;;;;;;;13.52;11.15;;;;;;;21.86;74.72;101583.03;4970253;28;20141;-81
2021/08/13 09:23:40;;;;;;;13.93;9.77;;;;;;;22.06;74.00;101595.72;4987370;28;20125;-81
2021/08/13 09:26:08;;;;;;;16.10;11.70;;;;;;;22.12;73.65;101610.41;4986192;28;20049;-83
2021/08/13 09:28:41;;;;;;;12.98;9.32;;;;;;;22.13;72.77;101587.50;4985116;28;20088;-82
2021/08/13 09:31:24;;;;;;;13.90;8.68;;;;;;;22.34;73.80;101592.63;4985878;28;20265;-81
2021/08/13 09:33:52;;;;;;;10.05;6.47;;;;;;;22.42;71.30;101603.28;4987130;28;20038;-82
2021/08/13 09:36:23;;;;;;;7.93;4.93;;;;;;;22.51;71.17;101588.25;4985942;28;20046;-82
2021/08/13 09:39:02;;;;;;;10.05;5.97;;;;;;;22.64;70.81;101601.00;4986966;28;20055;-80
2021/08/13 09:41:28;;;;;;;10.85;6.55;;;;;;;22.60;69.94;101598.91;4985611;28;20503;-82
2021/08/13 09:43:56;;;;;;;9.00;6.03;;;;;;;22.45;69.48;101605.56;5001717;28;20053;-82
2021/08/13 09:46:22;;;;;;;7.40;4.57;;;;;;;22.46;70.64;101611.88;4985637;28;20043;-81
2021/08/13 09:48:48;;;;;;;8.85;4.20;;;;;;;22.47;69.56;101586.19;4986893;28;20046;-83
2021/08/13 09:51:31;;;;;;;7.60;3.75;;;;;;;22.57;69.42;101600.19;4987078;28;20034;-82
2021/08/13 09:54:01;;;;;;;5.43;3.58;;;;;;;22.62;69.88;101592.16;4984095;28;20177;-81
2021/08/13 09:56:29;;;;;;;5.07;2.50;;;;;;;22.71;69.27;101588.06;4986158;28;20277;-82
2021/08/13 09:59:16;;;;;;;6.68;2.67;;;;;;;22.97;67.36;101606.13;5001301;28;20104;-83
2021/08/13 10:01:49;;;;;;;4.95;2.75;;;;;;;22.91;66.34;101612.50;4985927;28;20563;-82
2021/08/13 10:04:16;;;;;;;6.93;2.60;;;;;;;22.87;67.01;101610.41;4973813;28;20049;-83
2021/08/13 10:06:44;;;;;;;4.45;2.58;;;;;;;23.04;67.98;101605.22;5001344;28;20046;-82
2021/08/13 10:09:24;;;;;;;4.75;2.63;;;;;;;23.17;67.08;101611.41;4986770;28;20050;-83
2021/08/13 10:11:58;;;;;;;7.30;3.63;;;;;;;23.19;67.83;101602.97;4984360;28;20239;-82
2021/08/13 10:14:32;;;;;;;6.82;4.03;;;;;;;23.24;69.44;101599.53;4973100;28;20039;-82
2021/08/13 10:17:08;;;;;;;7.75;3.75;;;;;;;23.26;68.46;101603.72;4986107;28;20129;-82
2021/08/13 10:19:33;;;;;;;6.28;3.47;;;;;;;23.20;68.67;101599.16;4981265;28;20042;-81
2021/08/13 10:22:00;;;;;;;7.75;4.43;;;;;;;23.12;68.82;101607.66;4981291;28;20042;-81
2021/08/13 10:24:28;;;;;;;8.80;4.40;;;;;;;23.14;68.45;101611.84;4984016;28;20066;-80
2021/08/13 10:26:55;;;;;;;6.72;4.00;;;;;;;23.19;68.75;101608.44;4985955;28;20563;-83
2021/08/13 10:29:21;;;;;;;7.70;4.82;;;;;;;23.24;69.10;101613.22;4983550;28;20129;-82
2021/08/13 10:31:46;;;;;;;6.45;3.95;;;;;;;23.27;68.66;101599.06;4984137;28;20042;-84
2021/08/13 10:34:12;;;;;;;4.20;2.67;;;;;;;23.35;68.25;101598.75;4980481;28;20054;-84
2021/08/13 10:36:39;;;;;;;5.93;2.38;;;;;;;23.43;66.93;101604.75;4979670;28;20034;-84
2021/08/13 10:39:07;;;;;;;5.10;2.50;;;;;;;23.34;64.91;101600.66;4974994;28;20403;-81
2021/08/13 10:41:38;;;;;;;4.00;2.38;;;;;;;23.19;65.24;101608.44;4993088;28;20355;-81
2021/08/13 10:44:08;;;;;;;4.97;2.28;;;;;;;23.11;65.13;101587.69;4954626;28;21222;-82
2021/08/13 10:46:35;;;;;;;4.18;2.33;;;;;;;23.16;66.06;101604.25;4971576;28;20148;-84
2021/08/13 10:49:02;;;;;;;4.63;2.35;;;;;;;23.33;66.08;101601.75;4993287;28;20069;-83
2021/08/13 10:51:30;;;;;;;5.22;2.53;;;;;;;23.47;66.58;101607.88;4975154;28;20046;-84
2021/08/13 10:54:06;;;;;;;4.93;2.40;;;;;;;23.55;66.73;101593.84;4975192;28;20050;-82
2021/08/13 10:56:39;;;;;;;5.72;2.38;;;;;;;23.68;65.24;101586.50;4990983;28;20470;-84
2021/08/13 10:59:04;;;;;;;4.97;2.70;;;;;;;23.68;65.19;101595.59;4955040;28;20046;-82
2021/08/13 11:01:29;;;;;;;5.95;3.05;;;;;;;23.52;65.95;101599.81;4958570;28;20093;-84
2021/08/13 11:03:55;;;;;;;7.18;3.30;;;;;;;23.55;67.08;101591.13;4951461;28;20055;-83
2021/08/13 11:06:52;;;;;;;5.05;3.40;;;;;;;23.64;66.54;101592.47;4974430;28;20038;-82
2021/08/13 11:09:21;;;;;;;7.00;3.63;;;;;;;23.72;66.75;101599.56;4939092;28;20461;-82